createdAt,value
2023-01-07T00:01:15.506Z,9.94
2023-01-07T00:03:46.348Z,9.84
2023-01-07T00:06:16.194Z,9.95
2023-01-07T00:08:45.197Z,9.99
2023-01-07T00:11:16.312Z,9.94
2023-01-07T00:13:44.413Z,9.93
2023-01-07T00:16:13.714Z,9.56
2023-01-07T00:18:42.567Z,9.88
2023-01-07T00:21:14.254Z,9.88
2023-01-07T00:23:43.189Z,9.78
2023-01-07T00:26:13.097Z,9.79
2023-01-07T00:28:42.558Z,9.63
2023-01-07T00:31:12.546Z,9.54
2023-01-07T00:33:47.711Z,9.61
2023-01-07T00:36:16.757Z,9.52
2023-01-07T00:38:44.469Z,9.51
2023-01-07T00:41:12.464Z,9.53
2023-01-07T00:43:41.023Z,9.57
2023-01-07T00:46:10.626Z,9.68
2023-01-07T00:48:38.350Z,9.70
2023-01-07T00:51:06.099Z,9.72
2023-01-07T00:53:35.027Z,9.83
2023-01-07T00:56:02.835Z,9.81
2023-01-07T00:58:31.294Z,10.01
2023-01-07T01:01:01.715Z,9.92
2023-01-07T01:03:31.440Z,9.87
2023-01-07T01:06:02.595Z,9.99
2023-01-07T01:08:30.221Z,9.61
2023-01-07T01:11:03.992Z,9.49
2023-01-07T01:13:31.701Z,9.47
2023-01-07T01:15:59.507Z,9.58
2023-01-07T01:18:27.682Z,9.67
2023-01-07T01:20:55.763Z,9.74
2023-01-07T01:23:23.438Z,9.78
2023-01-07T01:25:51.016Z,10.12
2023-01-07T01:28:20.693Z,10.07
2023-01-07T01:30:55.789Z,10.07
2023-01-07T01:33:23.596Z,10.02
2023-01-07T01:35:51.226Z,10.03
2023-01-07T01:38:19.063Z,9.96
2023-01-07T01:40:46.712Z,10.01
2023-01-07T01:43:33.295Z,9.81
2023-01-07T01:46:04.133Z,9.77
2023-01-07T01:48:33.531Z,9.35
2023-01-07T01:51:01.892Z,9.58
2023-01-07T01:53:31.519Z,9.82
2023-01-07T01:56:05.526Z,9.54
2023-01-07T01:58:38.301Z,9.35
2023-01-07T02:01:06.367Z,9.67
2023-01-07T02:03:36.839Z,9.45
2023-01-07T02:06:05.641Z,9.50
2023-01-07T02:08:33.484Z,9.68
2023-01-07T02:11:13.015Z,9.81
2023-01-07T02:13:55.524Z,9.85
2023-01-07T02:16:32.340Z,10.06
2023-01-07T02:19:17.513Z,10.06
2023-01-07T02:21:54.131Z,10.15
2023-01-07T02:25:00.510Z,10.02
2023-01-07T02:27:50.714Z,9.95
2023-01-07T02:30:41.500Z,9.68
2023-01-07T02:33:34.302Z,9.27
2023-01-07T02:36:14.418Z,9.59
2023-01-07T02:38:55.423Z,9.74
2023-01-07T02:41:34.658Z,9.55
2023-01-07T02:44:05.672Z,9.62
2023-01-07T02:46:41.198Z,9.97
2023-01-07T02:49:12.619Z,9.42
2023-01-07T02:51:41.669Z,9.15
2023-01-07T02:54:16.172Z,9.63
2023-01-07T02:56:59.202Z,9.32
2023-01-07T03:00:02.124Z,9.57
2023-01-07T03:03:02.788Z,9.87
2023-01-07T03:05:46.131Z,9.97
2023-01-07T03:08:33.651Z,9.99
2023-01-07T03:11:03.993Z,9.56
2023-01-07T03:13:38.186Z,9.34
2023-01-07T03:16:11.056Z,9.67
2023-01-07T03:18:41.782Z,9.49
2023-01-07T03:21:13.858Z,9.45
2023-01-07T03:23:47.044Z,9.42
2023-01-07T03:26:20.020Z,9.56
2023-01-07T03:28:49.424Z,9.70
2023-01-07T03:31:18.613Z,10.01
2023-01-07T03:33:52.648Z,9.63
2023-01-07T03:36:26.624Z,9.52
2023-01-07T03:38:56.255Z,9.78
2023-01-07T03:41:41.736Z,9.86
2023-01-07T03:44:09.287Z,9.85
2023-01-07T03:46:38.353Z,9.82
2023-01-07T03:49:05.936Z,9.80
2023-01-07T03:51:34.950Z,9.75
2023-01-07T03:54:02.608Z,9.54
2023-01-07T03:56:30.215Z,9.14
2023-01-07T03:58:57.807Z,9.68
2023-01-07T04:01:27.449Z,9.62
2023-01-07T04:03:55.138Z,9.34
2023-01-07T04:06:22.781Z,9.60
2023-01-07T04:08:51.695Z,9.80
2023-01-07T04:11:19.326Z,9.69
2023-01-07T04:13:46.917Z,9.72
2023-01-07T04:16:14.565Z,9.51
2023-01-07T04:18:42.228Z,9.80
2023-01-07T04:21:09.904Z,9.80
2023-01-07T04:23:37.573Z,9.49
2023-01-07T04:26:06.738Z,9.73
2023-01-07T04:28:34.552Z,9.75
2023-01-07T04:31:02.607Z,9.67
2023-01-07T04:33:30.205Z,10.05
2023-01-07T04:35:58.662Z,9.90
2023-01-07T04:38:26.259Z,9.57
2023-01-07T04:40:53.884Z,9.60
2023-01-07T04:43:22.970Z,9.75
2023-01-07T04:45:50.701Z,9.61
2023-01-07T04:48:18.290Z,9.61
2023-01-07T04:50:47.380Z,9.79
2023-01-07T04:53:15.185Z,9.87
2023-01-07T04:55:44.943Z,9.85
2023-01-07T04:58:14.056Z,9.47
2023-01-07T05:00:43.036Z,9.29
2023-01-07T05:03:10.807Z,9.29
2023-01-07T05:05:38.474Z,9.27
2023-01-07T05:08:06.383Z,9.32
2023-01-07T05:10:34.016Z,9.20
2023-01-07T05:13:06.862Z,9.59
2023-01-07T05:15:34.784Z,9.60
2023-01-07T05:18:05.326Z,9.73
2023-01-07T05:20:32.980Z,9.39
2023-01-07T05:23:00.579Z,9.86
2023-01-07T05:25:28.263Z,9.82
2023-01-07T05:27:55.863Z,9.64
2023-01-07T05:30:23.449Z,9.61
2023-01-07T05:32:51.009Z,9.34
2023-01-07T05:35:20.172Z,9.28
2023-01-07T05:37:47.715Z,9.66
2023-01-07T05:40:15.337Z,9.73
2023-01-07T05:42:43.606Z,9.75
2023-01-07T05:45:12.211Z,9.75
2023-01-07T05:47:39.813Z,9.87
2023-01-07T05:50:08.031Z,9.87
2023-01-07T05:52:37.004Z,9.97
2023-01-07T05:55:05.141Z,9.88
2023-01-07T05:57:32.706Z,9.90
2023-01-07T06:00:00.390Z,9.81
2023-01-07T06:02:27.954Z,9.82
2023-01-07T06:04:55.571Z,9.89
2023-01-07T06:07:23.124Z,9.85
2023-01-07T06:09:51.988Z,9.98
2023-01-07T06:12:19.681Z,10.02
2023-01-07T06:14:47.343Z,10.01
2023-01-07T06:17:15.075Z,9.99
2023-01-07T06:19:42.726Z,10.00
2023-01-07T06:22:10.367Z,9.99
2023-01-07T06:24:37.949Z,10.01
2023-01-07T06:27:07.006Z,9.97
2023-01-07T06:29:34.630Z,10.05
2023-01-07T06:32:02.225Z,10.11
2023-01-07T06:34:29.864Z,10.03
2023-01-07T06:36:57.586Z,10.08
2023-01-07T06:39:25.608Z,10.09
2023-01-07T06:41:53.463Z,10.16
2023-01-07T06:44:22.363Z,10.21
2023-01-07T06:46:49.957Z,10.21
2023-01-07T06:49:18.304Z,10.19
2023-01-07T06:51:45.845Z,9.90
2023-01-07T06:54:13.611Z,9.71
2023-01-07T06:56:41.269Z,9.63
2023-01-07T06:59:08.909Z,9.84
2023-01-07T07:01:37.915Z,9.92
2023-01-07T07:04:05.964Z,10.03
2023-01-07T07:06:34.059Z,9.89
2023-01-07T07:09:01.893Z,9.87
2023-01-07T07:11:29.516Z,9.85
2023-01-07T07:13:57.263Z,9.90
2023-01-07T07:16:24.875Z,9.84
2023-01-07T07:18:54.052Z,9.79
2023-01-07T07:21:22.106Z,9.35
2023-01-07T07:23:49.671Z,9.69
2023-01-07T07:26:17.279Z,9.79
2023-01-07T07:28:44.868Z,9.68
2023-01-07T07:31:12.566Z,9.74
2023-01-07T07:33:40.177Z,9.86
2023-01-07T07:36:09.978Z,9.71
2023-01-07T07:38:37.600Z,9.92
2023-01-07T07:41:05.480Z,9.77
2023-01-07T07:43:35.763Z,9.82
2023-01-07T07:46:03.740Z,9.79
2023-01-07T07:48:31.425Z,9.84
2023-01-07T07:50:58.992Z,9.86
2023-01-07T07:53:28.039Z,9.89
2023-01-07T07:55:55.649Z,9.97
2023-01-07T07:58:23.905Z,9.99
2023-01-07T08:00:51.588Z,9.93
2023-01-07T08:03:19.168Z,9.82
2023-01-07T08:05:46.918Z,9.81
2023-01-07T08:08:16.460Z,9.91
2023-01-07T08:10:45.535Z,9.98
2023-01-07T08:13:13.196Z,9.91
2023-01-07T08:15:40.735Z,9.98
2023-01-07T08:18:10.923Z,9.85
2023-01-07T08:20:38.873Z,9.82
2023-01-07T08:23:08.225Z,9.87
2023-01-07T08:25:36.598Z,9.87
2023-01-07T08:28:05.877Z,9.82
2023-01-07T08:30:33.526Z,9.96
2023-01-07T08:33:01.401Z,9.98
2023-01-07T08:35:28.957Z,9.91
2023-01-07T08:38:02.449Z,9.89
2023-01-07T08:40:30.247Z,10.00
2023-01-07T08:42:59.993Z,9.98
2023-01-07T08:45:29.663Z,9.96
2023-01-07T08:47:58.490Z,10.14
2023-01-07T08:50:26.201Z,10.16
2023-01-07T08:52:53.844Z,10.10
2023-01-07T08:55:21.768Z,10.27
2023-01-07T08:57:49.898Z,10.29
2023-01-07T09:00:19.624Z,10.30
2023-01-07T09:02:48.685Z,10.14
2023-01-07T09:05:16.777Z,10.16
2023-01-07T09:07:44.549Z,10.28
2023-01-07T09:10:12.627Z,10.02
2023-01-07T09:12:40.289Z,10.06
2023-01-07T09:15:09.432Z,10.11
2023-01-07T09:18:04.033Z,10.32
2023-01-07T09:20:31.935Z,10.32
2023-01-07T09:22:59.660Z,10.27
2023-01-07T09:25:27.600Z,10.25
2023-01-07T09:27:55.317Z,10.32
2023-01-07T09:30:23.149Z,10.24
2023-01-07T09:32:50.726Z,10.27
2023-01-07T09:35:19.830Z,10.40
2023-01-07T09:37:47.398Z,10.54
2023-01-07T09:40:24.459Z,10.64
2023-01-07T09:42:58.923Z,10.90
2023-01-07T09:45:30.125Z,10.93
2023-01-07T09:48:00.532Z,10.87
2023-01-07T09:50:43.528Z,10.80
2023-01-07T09:53:16.914Z,10.79
2023-01-07T09:56:11.154Z,10.75
2023-01-07T09:58:33.480Z,10.76
2023-01-07T10:01:15.279Z,10.68
2023-01-07T10:03:55.569Z,10.71
2023-01-07T10:06:43.105Z,10.36
2023-01-07T10:09:27.582Z,10.67
2023-01-07T10:12:02.966Z,10.72
2023-01-07T10:14:53.272Z,10.49
2023-01-07T10:17:38.442Z,10.34
2023-01-07T10:20:14.520Z,10.28
2023-01-07T10:22:49.978Z,10.25
2023-01-07T10:25:21.439Z,10.11
2023-01-07T10:27:50.821Z,10.18
2023-01-07T10:30:22.948Z,10.24
2023-01-07T10:32:55.061Z,10.21
2023-01-07T10:35:26.059Z,10.15
2023-01-07T10:37:58.945Z,10.26
2023-01-07T10:40:40.044Z,10.29
2023-01-07T10:43:22.052Z,10.28
2023-01-07T10:46:05.394Z,10.14
2023-01-07T10:48:46.639Z,10.17
2023-01-07T10:51:23.519Z,10.31
2023-01-07T10:54:02.130Z,10.31
2023-01-07T10:56:32.307Z,10.37
2023-01-07T10:59:04.948Z,10.61
2023-01-07T11:01:36.390Z,10.63
2023-01-07T11:04:05.273Z,10.29
2023-01-07T11:06:39.539Z,10.30
2023-01-07T11:09:15.079Z,10.25
2023-01-07T11:11:43.798Z,10.30
2023-01-07T11:14:15.224Z,10.31
2023-01-07T11:16:47.418Z,10.24
2023-01-07T11:19:16.315Z,10.37
2023-01-07T11:21:46.844Z,10.47
2023-01-07T11:24:33.683Z,10.16
2023-01-07T11:27:05.271Z,10.07
2023-01-07T11:29:38.048Z,10.32
2023-01-07T11:32:07.429Z,10.48
2023-01-07T11:34:38.214Z,10.52
2023-01-07T11:37:06.261Z,10.55
2023-01-07T11:39:36.930Z,10.34
2023-01-07T11:42:30.310Z,10.59
2023-01-07T11:45:10.282Z,10.38
2023-01-07T11:47:41.075Z,10.50
2023-01-07T11:50:21.386Z,10.65
2023-01-07T11:52:56.913Z,10.68
2023-01-07T11:55:26.819Z,10.62
2023-01-07T11:58:09.542Z,10.72
2023-01-07T12:00:42.932Z,10.46
2023-01-07T12:03:13.796Z,10.54
2023-01-07T12:05:45.344Z,10.64
2023-01-07T12:08:22.057Z,10.54
2023-01-07T12:10:57.138Z,10.73
2023-01-07T12:13:28.213Z,10.58
2023-01-07T12:15:58.997Z,10.57
2023-01-07T12:18:57.472Z,10.84
2023-01-07T12:21:36.420Z,10.69
2023-01-07T12:24:17.462Z,10.64
2023-01-07T12:26:53.436Z,10.79
2023-01-07T12:29:36.189Z,10.72
2023-01-07T12:32:17.396Z,10.82
2023-01-07T12:34:53.067Z,10.65
2023-01-07T12:37:31.704Z,10.73
2023-01-07T12:40:07.683Z,10.93
2023-01-07T12:42:41.580Z,11.10
2023-01-07T12:45:19.100Z,11.27
2023-01-07T12:47:51.596Z,11.18
2023-01-07T12:50:25.535Z,11.01
2023-01-07T12:52:58.676Z,11.20
2023-01-07T12:55:31.593Z,11.35
2023-01-07T12:58:12.424Z,11.19
2023-01-07T13:00:48.582Z,10.92
2023-01-07T13:03:25.740Z,11.04
2023-01-07T13:05:57.562Z,11.09
2023-01-07T13:08:35.954Z,11.26
2023-01-07T13:11:11.160Z,11.17
2023-01-07T13:13:44.925Z,11.38
2023-01-07T13:16:12.953Z,11.28
2023-01-07T13:18:40.737Z,11.23
2023-01-07T13:21:11.136Z,11.34
2023-01-07T13:23:54.263Z,11.23
2023-01-07T13:26:32.468Z,11.29
2023-01-07T13:29:14.161Z,11.27
2023-01-07T13:32:01.160Z,11.17
2023-01-07T13:34:42.873Z,11.34
2023-01-07T13:37:35.860Z,11.32
2023-01-07T13:40:22.940Z,11.40
2023-01-07T13:42:54.615Z,11.44
2023-01-07T13:45:26.207Z,11.43
2023-01-07T13:47:56.812Z,12.04
2023-01-07T13:50:28.332Z,11.77
2023-01-07T13:53:02.207Z,11.96
2023-01-07T13:55:36.537Z,12.88
2023-01-07T13:58:31.163Z,12.35
2023-01-07T14:01:06.238Z,13.11
2023-01-07T14:03:43.299Z,13.46
2023-01-07T14:06:51.305Z,13.66
2023-01-07T14:09:39.995Z,13.45
2023-01-07T14:12:37.780Z,13.94
2023-01-07T14:15:26.731Z,13.70
2023-01-07T14:18:09.000Z,13.27
2023-01-07T14:20:47.202Z,13.18
2023-01-07T14:23:24.943Z,13.39
2023-01-07T14:26:04.340Z,12.64
2023-01-07T14:29:02.264Z,12.95
2023-01-07T14:31:31.167Z,13.52
2023-01-07T14:34:05.315Z,12.68
2023-01-07T14:37:14.971Z,12.38
2023-01-07T14:39:44.668Z,12.38
2023-01-07T14:42:46.190Z,11.72
2023-01-07T14:45:47.235Z,11.45
2023-01-07T14:48:37.051Z,11.39
2023-01-07T14:51:33.098Z,11.39
2023-01-07T14:54:48.262Z,11.38
2023-01-07T14:57:30.232Z,11.36
2023-01-07T15:00:25.327Z,11.31
2023-01-07T15:03:18.221Z,11.12
2023-01-07T15:06:01.394Z,11.17
2023-01-07T15:09:00.580Z,11.28
2023-01-07T15:11:46.578Z,10.93
2023-01-07T15:14:42.967Z,10.82
2023-01-07T15:17:13.818Z,10.81
2023-01-07T15:19:43.468Z,10.76
2023-01-07T15:22:52.476Z,10.69
2023-01-07T15:25:29.697Z,10.68
2023-01-07T15:28:07.647Z,10.57
2023-01-07T15:30:45.879Z,10.54
2023-01-07T15:33:48.016Z,10.57
2023-01-07T15:36:16.591Z,10.50
2023-01-07T15:38:50.258Z,10.45
2023-01-07T15:41:32.732Z,10.43
2023-01-07T15:44:02.919Z,10.40
2023-01-07T15:46:32.360Z,10.30
2023-01-07T15:49:15.445Z,10.30
2023-01-07T15:51:44.742Z,10.10
2023-01-07T15:54:27.172Z,10.20
2023-01-07T15:56:59.658Z,10.24
2023-01-07T15:59:29.901Z,10.11
2023-01-07T16:02:15.522Z,10.08
2023-01-07T16:04:44.609Z,9.99
2023-01-07T16:07:21.975Z,10.02
2023-01-07T16:09:50.078Z,9.94
2023-01-07T16:12:29.755Z,9.74
2023-01-07T16:14:57.379Z,9.39
2023-01-07T16:17:25.684Z,9.24
2023-01-07T16:20:21.627Z,9.07
2023-01-07T16:22:50.263Z,9.10
2023-01-07T16:25:28.221Z,9.02
2023-01-07T16:27:57.395Z,8.87
2023-01-07T16:30:25.285Z,8.67
2023-01-07T16:32:54.575Z,8.63
2023-01-07T16:35:30.837Z,8.66
2023-01-07T16:37:58.911Z,8.51
2023-01-07T16:40:36.789Z,8.56
2023-01-07T16:43:06.743Z,8.47
2023-01-07T16:45:36.235Z,8.37
2023-01-07T16:48:19.706Z,8.44
2023-01-07T16:50:47.976Z,8.42
2023-01-07T16:53:32.156Z,8.22
2023-01-07T16:56:14.362Z,8.13
2023-01-07T16:58:49.997Z,8.16
2023-01-07T17:01:20.320Z,7.95
2023-01-07T17:03:52.782Z,7.91
2023-01-07T17:06:24.727Z,7.81
2023-01-07T17:08:55.375Z,7.70
2023-01-07T17:11:26.772Z,7.77
2023-01-07T17:13:55.812Z,7.90
2023-01-07T17:16:33.183Z,7.89
2023-01-07T17:19:25.537Z,7.98
2023-01-07T17:21:53.869Z,7.99
2023-01-07T17:24:47.322Z,7.76
2023-01-07T17:27:22.223Z,7.70
2023-01-07T17:29:51.417Z,7.74
2023-01-07T17:32:19.060Z,7.76
2023-01-07T17:34:46.634Z,7.70
2023-01-07T17:37:15.893Z,7.72
2023-01-07T17:39:44.537Z,7.70
2023-01-07T17:42:38.949Z,7.63
2023-01-07T17:45:10.108Z,7.53
2023-01-07T17:47:37.744Z,7.51
2023-01-07T17:50:06.167Z,7.49
2023-01-07T17:52:33.943Z,7.55
2023-01-07T17:55:01.524Z,7.55
2023-01-07T17:57:29.169Z,7.47
2023-01-07T17:59:57.019Z,7.43
2023-01-07T18:02:30.397Z,7.34
2023-01-07T18:04:58.081Z,7.27
2023-01-07T18:07:25.652Z,7.24
2023-01-07T18:09:53.186Z,7.00
2023-01-07T18:12:33.351Z,7.06
2023-01-07T18:15:02.140Z,7.11
2023-01-07T18:17:31.281Z,7.17
2023-01-07T18:19:58.906Z,7.10
2023-01-07T18:22:26.592Z,7.07
2023-01-07T18:24:55.255Z,6.98
2023-01-07T18:27:22.935Z,6.90
2023-01-07T18:29:50.688Z,7.01
2023-01-07T18:32:18.260Z,6.96
2023-01-07T18:34:47.284Z,6.91
2023-01-07T18:37:16.528Z,6.92
2023-01-07T18:39:44.151Z,7.01
2023-01-07T18:42:12.748Z,6.91
2023-01-07T18:44:40.391Z,6.99
2023-01-07T18:47:08.005Z,6.98
2023-01-07T18:49:35.544Z,7.08
2023-01-07T18:52:04.574Z,7.16
2023-01-07T18:54:33.375Z,7.04
2023-01-07T18:57:01.100Z,6.96
2023-01-07T18:59:28.819Z,7.03
2023-01-07T19:01:59.363Z,7.05
2023-01-07T19:04:27.425Z,7.08
2023-01-07T19:06:55.304Z,6.90
2023-01-07T19:09:24.768Z,6.82
2023-01-07T19:11:52.483Z,6.94
2023-01-07T19:14:21.099Z,6.87
2023-01-07T19:16:48.797Z,7.00
2023-01-07T19:19:16.687Z,7.01
2023-01-07T19:21:46.649Z,7.06
2023-01-07T19:24:14.748Z,7.11
2023-01-07T19:26:43.864Z,6.81
2023-01-07T19:29:13.896Z,6.94
2023-01-07T19:31:43.080Z,6.92
2023-01-07T19:34:10.998Z,7.13
2023-01-07T19:36:38.827Z,7.17
2023-01-07T19:39:06.792Z,7.19
2023-01-07T19:41:35.043Z,7.11
2023-01-07T19:44:04.629Z,6.98
2023-01-07T19:46:34.683Z,7.42
2023-01-07T19:49:02.382Z,8.45
2023-01-07T19:51:30.091Z,8.72
2023-01-07T19:53:57.759Z,9.14
2023-01-07T19:56:25.731Z,9.64
2023-01-07T19:58:54.354Z,9.81
2023-01-07T20:01:26.618Z,9.81
2023-01-07T20:03:55.476Z,9.64
2023-01-07T20:06:25.898Z,8.58
2023-01-07T20:08:54.630Z,8.10
2023-01-07T20:11:23.230Z,7.88
2023-01-07T20:13:51.703Z,7.81
2023-01-07T20:16:21.853Z,7.80
2023-01-07T20:18:53.007Z,7.54
2023-01-07T20:21:22.237Z,7.06
2023-01-07T20:23:50.484Z,7.44
2023-01-07T20:26:23.007Z,7.32
2023-01-07T20:28:51.247Z,7.44
2023-01-07T20:31:21.432Z,6.60
2023-01-07T20:33:51.295Z,6.78
2023-01-07T20:36:22.211Z,6.75
2023-01-07T20:38:49.943Z,6.89
2023-01-07T20:41:19.519Z,6.95
2023-01-07T20:43:51.664Z,6.77
2023-01-07T20:46:19.753Z,6.79
2023-01-07T20:48:47.831Z,7.01
2023-01-07T20:51:17.840Z,6.94
2023-01-07T20:53:46.847Z,6.71
2023-01-07T20:56:16.572Z,6.67
2023-01-07T20:58:44.293Z,6.60
2023-01-07T21:01:14.210Z,6.96
2023-01-07T21:03:42.734Z,7.09
2023-01-07T21:06:12.024Z,6.85
2023-01-07T21:08:41.455Z,6.85
2023-01-07T21:11:11.350Z,6.97
2023-01-07T21:13:39.079Z,7.07
2023-01-07T21:16:07.448Z,6.97
2023-01-07T21:18:35.656Z,7.28
2023-01-07T21:21:09.765Z,6.89
2023-01-07T21:23:37.370Z,7.43
2023-01-07T21:26:07.056Z,7.88
2023-01-07T21:28:34.997Z,8.05
2023-01-07T21:31:04.874Z,8.65
2023-01-07T21:33:33.000Z,9.90
2023-01-07T21:36:00.657Z,10.20
2023-01-07T21:38:28.323Z,10.46
2023-01-07T21:40:56.092Z,10.65
2023-01-07T21:43:24.995Z,10.80
2023-01-07T21:45:52.808Z,10.91
2023-01-07T21:48:20.390Z,10.86
2023-01-07T21:50:48.059Z,10.97
2023-01-07T21:53:15.597Z,11.04
2023-01-07T21:55:43.255Z,11.02
2023-01-07T21:58:10.896Z,11.00
2023-01-07T22:00:39.841Z,10.99
2023-01-07T22:03:07.476Z,10.98
2023-01-07T22:05:35.034Z,11.03
2023-01-07T22:08:02.661Z,11.00
2023-01-07T22:10:30.586Z,10.84
2023-01-07T22:12:58.154Z,10.75
2023-01-07T22:15:25.791Z,10.72
2023-01-07T22:17:55.028Z,10.65
2023-01-07T22:20:22.593Z,10.62
2023-01-07T22:22:50.157Z,10.64
2023-01-07T22:25:17.929Z,10.62
2023-01-07T22:27:45.487Z,10.55
2023-01-07T22:30:14.160Z,10.60
2023-01-07T22:32:41.786Z,10.55
2023-01-07T22:35:11.005Z,10.54
2023-01-07T22:37:38.681Z,10.54
2023-01-07T22:40:08.259Z,10.52
2023-01-07T22:42:41.156Z,10.53
2023-01-07T22:45:13.460Z,10.52
2023-01-07T22:47:45.390Z,10.52
2023-01-07T22:50:15.046Z,10.56
2023-01-07T22:52:43.752Z,10.52
2023-01-07T22:55:13.222Z,10.57
2023-01-07T22:57:41.856Z,10.53
2023-01-07T23:00:16.760Z,10.53
2023-01-07T23:02:44.325Z,10.49
2023-01-07T23:05:11.981Z,10.55
2023-01-07T23:07:40.906Z,10.52
2023-01-07T23:10:09.420Z,10.45
2023-01-07T23:12:36.946Z,10.41
2023-01-07T23:15:04.990Z,10.41
2023-01-07T23:17:32.563Z,10.46
2023-01-07T23:20:00.114Z,10.46
2023-01-07T23:22:27.677Z,10.42
2023-01-07T23:24:56.556Z,10.42
2023-01-07T23:27:24.144Z,10.40
2023-01-07T23:29:51.747Z,10.44
2023-01-07T23:32:19.642Z,10.46
2023-01-07T23:34:47.172Z,10.43
2023-01-07T23:37:14.778Z,10.48
2023-01-07T23:39:42.329Z,10.51
2023-01-07T23:42:11.265Z,10.53
2023-01-07T23:44:38.921Z,10.52
2023-01-07T23:47:06.590Z,10.51
2023-01-07T23:49:34.129Z,10.61
2023-01-07T23:52:01.753Z,10.55
2023-01-07T23:54:29.292Z,10.60
2023-01-07T23:56:56.823Z,10.58
2023-01-07T23:59:25.851Z,10.61
